createdAt,value
2018-11-26T00:04:01.717Z,3.6
2018-11-26T00:09:04.089Z,3.6
2018-11-26T00:14:06.366Z,3.6
2018-11-26T00:19:09.752Z,3.6
2018-11-26T00:24:10.897Z,3.6
2018-11-26T00:29:13.260Z,3.6
2018-11-26T00:34:15.479Z,3.6
2018-11-26T00:39:17.706Z,3.6
2018-11-26T00:44:20.120Z,3.6
2018-11-26T00:49:22.433Z,3.6
2018-11-26T00:54:24.615Z,3.6
2018-11-26T00:59:26.995Z,3.6
2018-11-26T01:04:29.277Z,3.6
2018-11-26T01:09:31.600Z,3.6
2018-11-26T01:14:33.780Z,3.6
2018-11-26T01:19:36.106Z,3.6
2018-11-26T01:24:38.452Z,3.6
2018-11-26T01:29:40.631Z,3.6
2018-11-26T01:34:42.936Z,3.7
2018-11-26T01:39:45.307Z,3.7
2018-11-26T01:44:47.533Z,3.7
2018-11-26T01:49:49.903Z,3.7
2018-11-26T01:54:52.193Z,3.6
2018-11-26T01:59:54.521Z,3.7
2018-11-26T02:04:56.903Z,3.7
2018-11-26T02:09:59.014Z,3.7
2018-11-26T02:15:01.290Z,3.6
2018-11-26T02:20:03.689Z,3.7
2018-11-26T02:25:06.077Z,3.7
2018-11-26T02:30:08.213Z,3.7
2018-11-26T02:35:10.593Z,3.7
2018-11-26T02:40:12.889Z,3.7
2018-11-26T02:45:15.038Z,3.7
2018-11-26T02:50:17.338Z,3.7
2018-11-26T02:55:19.775Z,3.8
2018-11-26T03:00:21.964Z,3.8
2018-11-26T03:05:24.416Z,3.8
2018-11-26T03:10:26.625Z,3.8
2018-11-26T03:15:28.940Z,3.8
2018-11-26T03:20:31.218Z,3.8
2018-11-26T03:25:34.692Z,3.8
2018-11-26T03:30:35.789Z,3.9
2018-11-26T03:35:39.098Z,3.9
2018-11-26T03:40:40.436Z,3.9
2018-11-26T03:45:42.637Z,3.9
2018-11-26T03:50:44.883Z,3.9
2018-11-26T03:55:47.212Z,3.9
2018-11-26T04:00:49.589Z,3.9
2018-11-26T04:05:51.762Z,3.9
2018-11-26T04:10:54.057Z,3.9
2018-11-26T04:15:56.437Z,3.9
2018-11-26T04:20:58.637Z,3.9
2018-11-26T04:26:00.948Z,4
2018-11-26T04:31:03.410Z,4
2018-11-26T04:36:05.549Z,4
2018-11-26T04:41:07.833Z,4
2018-11-26T04:46:10.166Z,4
2018-11-26T04:51:12.408Z,4.1
2018-11-26T04:56:14.786Z,4
2018-11-26T05:01:17.089Z,4.1
2018-11-26T05:06:21.238Z,4.1
2018-11-26T05:11:21.702Z,4.1
2018-11-26T05:16:23.899Z,4.1
2018-11-26T05:21:26.161Z,4.1
2018-11-26T05:26:28.485Z,4.1
2018-11-26T05:31:30.744Z,4.1
2018-11-26T05:36:33.194Z,4.2
2018-11-26T05:41:35.331Z,4.2
2018-11-26T05:46:37.682Z,4.2
2018-11-26T05:51:40.001Z,4.2
2018-11-26T05:56:42.212Z,4.2
2018-11-26T06:01:44.718Z,4.2
2018-11-26T06:06:46.933Z,4.2
2018-11-26T06:11:49.208Z,4.2
2018-11-26T06:16:53.733Z,4.2
2018-11-26T06:21:53.779Z,4.2
2018-11-26T06:26:56.156Z,4.3
2018-11-26T06:31:58.367Z,4.3
2018-11-26T06:37:00.730Z,4.3
2018-11-26T06:42:04.072Z,4.3
2018-11-26T06:47:05.197Z,4.3
2018-11-26T06:52:07.631Z,4.3
2018-11-26T06:57:09.927Z,4.3
2018-11-26T07:02:12.088Z,4.3
2018-11-26T07:07:14.372Z,4.3
2018-11-26T07:12:16.640Z,4.3
2018-11-26T07:17:19.020Z,4.3
2018-11-26T07:22:21.269Z,4.3
2018-11-26T07:27:23.624Z,4.4
2018-11-26T07:32:25.839Z,4.4
2018-11-26T07:37:28.133Z,4.4
2018-11-26T07:42:30.443Z,4.4
2018-11-26T07:47:32.742Z,4.4
2018-11-26T07:52:34.941Z,4.4
2018-11-26T07:57:37.287Z,4.4
2018-11-26T08:02:39.554Z,4.5
2018-11-26T08:07:41.840Z,4.5
2018-11-26T08:12:46.036Z,4.5
2018-11-26T08:17:47.607Z,4.5
2018-11-26T08:22:48.803Z,4.5
2018-11-26T08:27:51.068Z,4.5
2018-11-26T08:32:53.479Z,4.6
2018-11-26T08:37:55.618Z,4.6
2018-11-26T08:42:57.985Z,4.6
2018-11-26T08:53:02.530Z,4.7
2018-11-26T08:58:04.915Z,4.7
2018-11-26T09:03:07.218Z,4.7
2018-11-26T09:08:09.484Z,4.7
2018-11-26T09:13:11.718Z,4.8
2018-11-26T09:18:14.112Z,4.8
2018-11-26T09:23:16.342Z,4.9
2018-11-26T09:28:18.659Z,4.9
2018-11-26T09:33:20.913Z,4.9
2018-11-26T09:38:23.250Z,4.9
2018-11-26T09:43:25.414Z,4.9
2018-11-26T09:48:27.840Z,5
2018-11-26T09:53:31.543Z,5
2018-11-26T09:58:33.530Z,5
2018-11-26T10:03:34.624Z,5.1
2018-11-26T10:08:37.036Z,5.1
2018-11-26T10:13:39.349Z,5.2
2018-11-26T10:18:41.667Z,5.2
2018-11-26T10:23:43.833Z,5.2
2018-11-26T10:28:46.088Z,5.2
2018-11-26T10:33:48.509Z,5.3
2018-11-26T10:38:50.880Z,5.3
2018-11-26T10:43:53.032Z,5.4
2018-11-26T10:48:55.484Z,5.4
2018-11-26T10:53:57.701Z,5.6
2018-11-26T10:58:59.920Z,5.6
2018-11-26T11:04:02.251Z,5.5
2018-11-26T11:09:04.491Z,5.5
2018-11-26T11:14:06.862Z,5.5
2018-11-26T11:19:08.989Z,5.4
2018-11-26T11:24:11.350Z,5.4
2018-11-26T11:29:13.595Z,5.4
2018-11-26T11:34:16.081Z,5.3
2018-11-26T11:39:18.339Z,5.3
2018-11-26T11:44:20.545Z,5.4
2018-11-26T11:49:22.894Z,5.4
2018-11-26T11:54:25.105Z,5.4
2018-11-26T11:59:27.478Z,5.4
2018-11-26T12:04:29.770Z,5.4
2018-11-26T12:09:32.048Z,5.5
2018-11-26T12:14:34.311Z,5.5
2018-11-26T12:19:36.672Z,5.5
2018-11-26T12:24:38.993Z,5.5
2018-11-26T12:29:41.215Z,5.6
2018-11-26T12:34:43.442Z,5.6
2018-11-26T12:39:45.932Z,5.6
2018-11-26T12:44:48.055Z,5.6
2018-11-26T12:49:50.362Z,5.7
2018-11-26T12:54:52.647Z,5.6
2018-11-26T12:59:54.989Z,5.6
2018-11-26T13:04:57.259Z,5.7
2018-11-26T13:09:59.684Z,5.7
2018-11-26T13:15:01.953Z,5.6
2018-11-26T13:20:05.912Z,5.6
2018-11-26T13:25:06.427Z,5.6
2018-11-26T13:30:08.798Z,5.6
2018-11-26T13:35:11.012Z,5.6
2018-11-26T13:40:13.231Z,5.6
2018-11-26T13:45:15.598Z,5.6
2018-11-26T13:50:18.066Z,5.5
2018-11-26T13:55:20.178Z,5.5
2018-11-26T14:00:22.514Z,5.5
2018-11-26T14:05:25.906Z,5.5
2018-11-26T14:10:27.032Z,5.5
2018-11-26T14:15:29.489Z,5.4
2018-11-26T14:20:31.715Z,5.5
2018-11-26T14:25:33.928Z,5.5
2018-11-26T14:30:36.229Z,5.5
2018-11-26T14:35:38.566Z,5.5
2018-11-26T14:40:40.775Z,5.4
2018-11-26T14:45:44.969Z,5.4
2018-11-26T14:50:45.493Z,5.5
2018-11-26T15:00:49.944Z,5.5
2018-11-26T15:05:52.300Z,5.4
2018-11-26T15:10:54.676Z,5.5
2018-11-26T15:15:56.841Z,5.4
2018-11-26T15:20:59.308Z,5.4
2018-11-26T15:26:01.411Z,5.4
2018-11-26T15:31:03.720Z,5.4
2018-11-26T15:36:06.008Z,5.4
2018-11-26T15:41:08.292Z,5.4
2018-11-26T15:46:10.621Z,5.3
2018-11-26T15:51:12.926Z,5.4
2018-11-26T15:56:15.357Z,5.3
2018-11-26T16:01:17.489Z,5.3
2018-11-26T16:06:19.846Z,5.3
2018-11-26T16:11:22.246Z,5.3
2018-11-26T16:16:24.434Z,5.3
2018-11-26T16:21:26.725Z,5.2
2018-11-26T16:26:28.933Z,5.3
2018-11-26T16:31:31.426Z,5.2
2018-11-26T16:36:33.540Z,5.2
2018-11-26T16:41:35.907Z,5.2
2018-11-26T16:46:38.231Z,5.2
2018-11-26T16:51:40.555Z,5.2
2018-11-26T16:56:42.735Z,5.2
2018-11-26T17:01:45.174Z,5.2
2018-11-26T17:06:47.369Z,5.2
2018-11-26T17:11:49.572Z,5.2
2018-11-26T17:16:51.996Z,5.2
2018-11-26T17:21:54.236Z,5.2
2018-11-26T17:26:56.598Z,5.2
2018-11-26T17:31:58.834Z,5.2
2018-11-26T17:37:01.028Z,5.3
2018-11-26T17:42:03.400Z,5.3
2018-11-26T17:47:05.797Z,5.3
2018-11-26T18:12:23.123Z,5.3
2018-11-26T18:17:24.019Z,5.4
2018-11-26T18:22:26.329Z,5.4
2018-11-26T18:27:28.557Z,5.4
2018-11-26T18:32:30.979Z,5.3
2018-11-26T18:37:33.191Z,5.4
2018-11-26T18:42:35.477Z,5.4
2018-11-26T18:47:37.677Z,5.3
2018-11-26T18:52:41.553Z,5.3
2018-11-26T18:57:42.352Z,5.4
2018-11-26T19:02:44.683Z,5.3
2018-11-26T19:07:46.883Z,5.3
2018-11-26T19:12:49.173Z,5.4
2018-11-26T19:17:51.548Z,5.4
2018-11-26T19:22:53.777Z,5.3
2018-11-26T19:27:57.951Z,5.3
2018-11-26T19:32:58.373Z,5.3
2018-11-26T19:38:00.755Z,5.3
2018-11-26T19:43:03.074Z,5.3
2018-11-26T19:48:05.337Z,5.3
2018-11-26T19:53:07.612Z,5.3
2018-11-26T19:58:09.886Z,5.2
2018-11-26T20:03:12.299Z,5.2
2018-11-26T20:08:14.485Z,5.2
2018-11-26T20:13:16.737Z,5.2
2018-11-26T20:18:19.155Z,5.2
2018-11-26T20:23:22.383Z,5.2
2018-11-26T20:28:23.647Z,5.2
2018-11-26T20:33:26.093Z,5.2
2018-11-26T20:38:28.247Z,5.2
2018-11-26T20:43:30.638Z,5.2
2018-11-26T20:48:32.821Z,5.2
2018-11-26T20:53:35.118Z,5.2
2018-11-26T20:58:37.452Z,5.2
2018-11-26T21:03:39.626Z,5.1
2018-11-26T21:08:41.968Z,5.1
2018-11-26T21:13:44.344Z,5.1
2018-11-26T21:18:46.644Z,5.1
2018-11-26T21:23:48.908Z,5.1
2018-11-26T21:28:51.186Z,5
2018-11-26T21:33:53.452Z,5.1
2018-11-26T21:38:55.780Z,5.1
2018-11-26T21:43:58.079Z,5
2018-11-26T21:49:00.364Z,5
2018-11-26T21:54:03.884Z,4.9
2018-11-26T21:59:04.945Z,4.8
2018-11-26T22:04:07.248Z,4.8
2018-11-26T22:09:09.542Z,4.7
2018-11-26T22:14:12.001Z,4.6
2018-11-26T22:19:14.091Z,4.5
2018-11-26T22:24:16.473Z,4.5
2018-11-26T22:29:18.667Z,4.5
2018-11-26T22:34:20.958Z,4.5
2018-11-26T22:39:23.230Z,4.5
2018-11-26T22:44:27.381Z,4.5
2018-11-26T22:49:27.869Z,4.4
2018-11-26T22:54:30.148Z,4.4
2018-11-26T22:59:32.423Z,4.3
2018-11-26T23:04:34.883Z,4.3
2018-11-26T23:09:37.123Z,4.3
2018-11-26T23:14:39.339Z,4.3
2018-11-26T23:19:41.574Z,4.2
2018-11-26T23:24:43.990Z,4.2
2018-11-26T23:29:47.313Z,4.2
2018-11-26T23:34:48.532Z,4.2
2018-11-26T23:39:52.281Z,4.2
2018-11-26T23:44:53.245Z,4.1
2018-11-26T23:49:55.672Z,4.1
2018-11-26T23:54:57.784Z,4
2018-11-26T23:59:59.989Z,4
